createdAt,value
2022-11-14T00:01:50.077Z,3.20
2022-11-14T00:04:46.019Z,3.10
2022-11-14T00:07:40.009Z,3.10
2022-11-14T00:10:32.632Z,3.10
2022-11-14T00:13:26.020Z,3.10
2022-11-14T00:16:21.153Z,3.00
2022-11-14T00:19:14.189Z,3.00
2022-11-14T00:22:11.823Z,3.00
2022-11-14T00:25:04.512Z,3.00
2022-11-14T00:28:00.230Z,3.00
2022-11-14T00:30:55.635Z,3.00
2022-11-14T00:33:49.219Z,3.00
2022-11-14T00:36:42.779Z,3.00
2022-11-14T00:39:38.627Z,3.00
2022-11-14T00:42:34.853Z,3.00
2022-11-14T00:45:29.587Z,3.00
2022-11-14T00:48:24.719Z,3.00
2022-11-14T00:51:18.005Z,3.00
2022-11-14T00:54:12.629Z,3.00
2022-11-14T00:57:11.171Z,3.00
2022-11-14T01:00:04.129Z,3.00
2022-11-14T01:02:58.515Z,3.00
2022-11-14T01:05:49.884Z,3.00
2022-11-14T01:08:43.055Z,3.00
2022-11-14T01:11:37.047Z,3.00
2022-11-14T01:14:34.332Z,3.00
2022-11-14T01:17:31.251Z,3.00
2022-11-14T01:20:23.668Z,3.00
2022-11-14T01:23:16.924Z,3.00
2022-11-14T01:26:10.734Z,3.00
2022-11-14T01:29:04.290Z,3.00
2022-11-14T01:32:00.481Z,3.00
2022-11-14T01:34:54.455Z,3.00
2022-11-14T01:37:51.130Z,3.10
2022-11-14T01:40:45.039Z,3.00
2022-11-14T01:43:37.423Z,3.10
2022-11-14T01:46:32.366Z,3.00
2022-11-14T01:49:29.289Z,3.10
2022-11-14T01:52:21.578Z,3.10
2022-11-14T01:55:18.289Z,3.10
2022-11-14T01:58:12.332Z,3.10
2022-11-14T02:01:06.589Z,3.10
2022-11-14T02:03:58.631Z,3.10
2022-11-14T02:06:54.708Z,3.10
2022-11-14T02:09:48.121Z,3.20
2022-11-14T02:12:40.762Z,3.10
2022-11-14T02:15:35.389Z,3.10
2022-11-14T02:18:29.899Z,3.20
2022-11-14T02:21:28.137Z,3.20
2022-11-14T02:24:22.243Z,3.20
2022-11-14T02:27:15.920Z,3.20
2022-11-14T02:30:09.359Z,3.20
2022-11-14T02:33:12.196Z,3.30
2022-11-14T02:36:04.373Z,3.30
2022-11-14T02:39:03.537Z,3.30
2022-11-14T02:42:00.057Z,3.30
2022-11-14T02:44:55.473Z,3.30
2022-11-14T02:47:51.452Z,3.30
2022-11-14T02:50:43.232Z,3.30
2022-11-14T02:53:38.545Z,3.40
2022-11-14T02:56:33.937Z,3.30
2022-11-14T02:59:29.895Z,3.30
2022-11-14T03:02:22.842Z,3.30
2022-11-14T03:05:15.699Z,3.30
2022-11-14T03:08:09.294Z,3.40
2022-11-14T03:11:06.796Z,3.40
2022-11-14T03:14:02.163Z,3.40
2022-11-14T03:16:58.017Z,3.40
2022-11-14T03:19:54.846Z,3.40
2022-11-14T03:22:47.881Z,3.40
2022-11-14T03:25:41.898Z,3.40
2022-11-14T03:28:36.805Z,3.40
2022-11-14T03:31:33.438Z,3.40
2022-11-14T03:34:29.508Z,3.40
2022-11-14T03:37:22.375Z,3.40
2022-11-14T03:40:15.512Z,3.40
2022-11-14T03:43:08.458Z,3.40
2022-11-14T03:46:03.045Z,3.40
2022-11-14T03:48:55.412Z,3.40
2022-11-14T03:51:51.455Z,3.50
2022-11-14T03:54:44.600Z,3.50
2022-11-14T03:57:40.498Z,3.50
2022-11-14T04:00:34.004Z,3.50
2022-11-14T04:03:28.085Z,3.60
2022-11-14T04:06:21.893Z,3.60
2022-11-14T04:09:17.391Z,3.70
2022-11-14T04:12:14.411Z,3.70
2022-11-14T04:15:08.097Z,3.70
2022-11-14T04:18:01.860Z,3.70
2022-11-14T04:20:54.445Z,3.70
2022-11-14T04:23:47.399Z,3.70
2022-11-14T04:26:44.237Z,3.70
2022-11-14T04:29:37.110Z,3.70
2022-11-14T04:32:30.465Z,3.80
2022-11-14T04:35:26.105Z,3.80
2022-11-14T04:38:18.917Z,3.80
2022-11-14T04:41:13.732Z,3.90
2022-11-14T04:44:09.389Z,3.90
2022-11-14T04:47:01.118Z,3.90
2022-11-14T04:49:57.495Z,3.90
2022-11-14T04:52:49.953Z,3.90
2022-11-14T04:55:43.558Z,3.90
2022-11-14T04:58:36.784Z,4.00
2022-11-14T05:01:32.618Z,4.00
2022-11-14T05:04:25.534Z,4.00
2022-11-14T05:07:22.661Z,4.00
2022-11-14T05:10:15.799Z,4.00
2022-11-14T05:13:10.671Z,4.00
2022-11-14T05:16:05.527Z,4.00
2022-11-14T05:18:59.547Z,4.00
2022-11-14T05:21:54.810Z,4.00
2022-11-14T05:24:47.903Z,4.00
2022-11-14T05:27:41.276Z,4.00
2022-11-14T05:30:39.522Z,4.10
2022-11-14T05:33:32.708Z,4.00
2022-11-14T05:36:28.405Z,4.10
2022-11-14T05:39:24.017Z,4.10
2022-11-14T05:42:18.107Z,4.10
2022-11-14T05:45:11.626Z,4.10
2022-11-14T05:48:05.038Z,4.10
2022-11-14T05:50:59.802Z,4.10
2022-11-14T05:53:57.083Z,4.10
2022-11-14T05:56:50.283Z,4.20
2022-11-14T05:59:44.655Z,4.20
2022-11-14T06:02:37.316Z,4.20
2022-11-14T06:05:30.102Z,4.10
2022-11-14T06:08:23.043Z,4.20
2022-11-14T06:11:21.311Z,4.20
2022-11-14T06:14:14.907Z,4.20
2022-11-14T06:17:09.629Z,4.10
2022-11-14T06:20:03.110Z,4.10
2022-11-14T06:22:58.691Z,4.10
2022-11-14T06:25:52.197Z,4.10
2022-11-14T06:28:49.733Z,4.20
2022-11-14T06:31:42.721Z,4.20
2022-11-14T06:34:38.446Z,4.20
2022-11-14T06:37:33.809Z,4.20
2022-11-14T06:40:26.321Z,4.20
2022-11-14T06:43:18.677Z,4.20
2022-11-14T06:46:16.010Z,4.20
2022-11-14T06:49:08.513Z,4.20
2022-11-14T06:52:02.761Z,4.20
2022-11-14T06:54:58.900Z,4.20
2022-11-14T06:57:55.771Z,4.20
2022-11-14T07:00:48.790Z,4.20
2022-11-14T07:03:48.072Z,4.20
2022-11-14T07:06:40.849Z,4.30
2022-11-14T07:09:33.776Z,4.30
2022-11-14T07:12:26.705Z,4.30
2022-11-14T07:15:20.160Z,4.30
2022-11-14T07:18:15.207Z,4.30
2022-11-14T07:21:13.652Z,4.30
2022-11-14T07:24:07.479Z,4.30
2022-11-14T07:27:08.831Z,4.40
2022-11-14T07:30:02.131Z,4.40
2022-11-14T07:32:57.213Z,4.40
2022-11-14T07:35:52.192Z,4.50
2022-11-14T07:38:49.018Z,4.50
2022-11-14T07:41:41.746Z,4.60
2022-11-14T07:44:35.194Z,4.60
2022-11-14T07:47:29.144Z,4.60
2022-11-14T07:50:22.008Z,4.60
2022-11-14T07:53:18.055Z,4.60
2022-11-14T07:56:15.356Z,4.60
2022-11-14T07:59:08.737Z,4.70
2022-11-14T08:02:03.020Z,5.50
2022-11-14T08:04:56.262Z,4.80
2022-11-14T08:07:50.078Z,4.90
2022-11-14T08:10:45.205Z,4.90
2022-11-14T08:13:45.209Z,4.90
2022-11-14T08:16:39.073Z,4.90
2022-11-14T08:19:31.336Z,5.00
2022-11-14T08:22:23.872Z,5.00
2022-11-14T08:25:19.139Z,5.00
2022-11-14T08:28:11.544Z,5.10
2022-11-14T08:31:11.258Z,5.10
2022-11-14T08:34:04.318Z,5.10
2022-11-14T08:37:03.966Z,5.20
2022-11-14T08:39:57.801Z,5.20
2022-11-14T08:42:51.253Z,5.60
2022-11-14T08:45:45.410Z,5.20
2022-11-14T08:48:42.591Z,5.20
2022-11-14T08:51:37.411Z,5.30
2022-11-14T08:54:33.686Z,5.30
2022-11-14T08:57:28.159Z,5.30
2022-11-14T09:00:22.897Z,5.40
2022-11-14T09:03:17.007Z,5.70
2022-11-14T09:06:11.083Z,5.50
2022-11-14T09:09:06.484Z,5.50
2022-11-14T09:12:02.413Z,5.50
2022-11-14T09:14:53.849Z,5.50
2022-11-14T09:17:47.226Z,5.60
2022-11-14T09:20:41.814Z,5.70
2022-11-14T09:23:35.140Z,5.70
2022-11-14T09:26:31.159Z,5.60
2022-11-14T09:29:23.817Z,5.70
2022-11-14T09:32:17.187Z,5.70
2022-11-14T09:35:10.892Z,5.70
2022-11-14T09:38:04.410Z,5.70
2022-11-14T09:40:58.396Z,5.70
2022-11-14T09:43:56.833Z,5.80
2022-11-14T09:46:51.166Z,5.80
2022-11-14T09:49:44.987Z,5.90
2022-11-14T09:52:39.331Z,5.90
2022-11-14T09:55:36.880Z,6.00
2022-11-14T09:58:28.975Z,6.00
2022-11-14T10:01:27.060Z,6.10
2022-11-14T10:04:22.125Z,6.10
2022-11-14T10:07:18.631Z,6.10
2022-11-14T10:10:10.371Z,6.10
2022-11-14T10:13:07.813Z,6.10
2022-11-14T10:16:01.988Z,6.20
2022-11-14T10:19:02.000Z,6.30
2022-11-14T10:21:57.459Z,6.30
2022-11-14T10:25:08.423Z,6.40
2022-11-14T10:28:08.598Z,6.50
2022-11-14T10:31:02.340Z,6.60
2022-11-14T10:34:01.478Z,6.70
2022-11-14T10:36:57.142Z,6.80
2022-11-14T10:39:50.308Z,6.90
2022-11-14T10:42:44.143Z,7.00
2022-11-14T10:45:38.426Z,6.90
2022-11-14T10:48:34.909Z,7.00
2022-11-14T10:51:32.678Z,6.90
2022-11-14T10:54:30.348Z,6.90
2022-11-14T10:57:23.342Z,7.00
2022-11-14T11:00:18.426Z,7.10
2022-11-14T11:03:14.732Z,7.00
2022-11-14T11:06:06.174Z,7.00
2022-11-14T11:09:11.444Z,7.10
2022-11-14T11:12:12.194Z,7.10
2022-11-14T11:15:01.166Z,7.20
2022-11-14T11:17:57.228Z,7.30
2022-11-14T11:20:51.287Z,7.50
2022-11-14T11:23:50.995Z,7.40
2022-11-14T11:26:46.195Z,7.50
2022-11-14T11:29:45.803Z,7.60
2022-11-14T11:32:39.687Z,8.60
2022-11-14T11:35:33.109Z,7.70
2022-11-14T11:38:26.386Z,7.80
2022-11-14T11:42:02.338Z,7.80
2022-11-14T11:44:36.752Z,7.80
2022-11-14T11:47:32.945Z,7.90
2022-11-14T11:50:26.512Z,7.90
2022-11-14T11:53:20.882Z,7.90
2022-11-14T11:56:16.356Z,8.00
2022-11-14T11:59:15.802Z,8.00
2022-11-14T12:02:17.581Z,8.90
2022-11-14T12:05:15.592Z,8.10
2022-11-14T12:08:13.273Z,8.20
2022-11-14T12:11:07.901Z,8.30
2022-11-14T12:14:03.424Z,8.40
2022-11-14T12:17:01.484Z,8.50
2022-11-14T12:19:57.479Z,8.60
2022-11-14T12:22:59.509Z,8.70
2022-11-14T12:26:01.511Z,8.70
2022-11-14T12:28:54.455Z,8.80
2022-11-14T12:31:49.400Z,8.90
2022-11-14T12:34:42.428Z,9.00
2022-11-14T12:37:37.575Z,9.10
2022-11-14T12:40:33.789Z,9.20
2022-11-14T12:43:35.828Z,9.30
2022-11-14T12:46:31.303Z,9.30
2022-11-14T12:49:39.767Z,9.40
2022-11-14T12:52:46.403Z,9.50
2022-11-14T12:55:53.791Z,9.60
2022-11-14T12:58:58.392Z,9.60
2022-11-14T13:01:51.503Z,9.70
2022-11-14T13:04:46.904Z,9.80
2022-11-14T13:07:43.256Z,9.80
2022-11-14T13:10:40.375Z,9.80
2022-11-14T13:13:45.072Z,9.90
2022-11-14T13:17:01.770Z,9.90
2022-11-14T13:20:09.176Z,9.90
2022-11-14T13:23:01.784Z,10.00
2022-11-14T13:25:59.987Z,10.00
2022-11-14T13:28:53.421Z,10.10
2022-11-14T13:31:54.796Z,10.10
2022-11-14T13:34:48.833Z,10.10
2022-11-14T13:37:50.235Z,10.10
2022-11-14T13:40:45.234Z,10.20
2022-11-14T13:43:41.175Z,10.20
2022-11-14T13:46:36.757Z,10.20
2022-11-14T13:49:40.611Z,10.20
2022-11-14T13:52:35.827Z,10.20
2022-11-14T13:55:32.494Z,10.20
2022-11-14T13:58:28.835Z,10.30
2022-11-14T14:01:28.316Z,10.30
2022-11-14T14:04:23.983Z,10.30
2022-11-14T14:07:21.606Z,10.30
2022-11-14T14:10:27.429Z,10.30
2022-11-14T14:13:24.310Z,10.30
2022-11-14T14:16:18.397Z,10.30
2022-11-14T14:19:15.376Z,10.30
2022-11-14T14:22:06.974Z,10.30
2022-11-14T14:25:03.891Z,10.30
2022-11-14T14:27:59.247Z,10.30
2022-11-14T14:31:05.265Z,10.30
2022-11-14T14:33:57.828Z,10.20
2022-11-14T14:36:53.809Z,10.30
2022-11-14T14:39:51.402Z,10.30
2022-11-14T14:42:49.766Z,10.30
2022-11-14T14:45:48.456Z,10.20
2022-11-14T14:48:40.281Z,10.20
2022-11-14T14:51:33.761Z,10.10
2022-11-14T14:54:28.916Z,10.10
2022-11-14T14:57:23.533Z,10.00
2022-11-14T15:00:27.013Z,10.00
2022-11-14T15:03:19.876Z,9.90
2022-11-14T15:06:16.991Z,9.90
2022-11-14T15:09:11.780Z,9.90
2022-11-14T15:12:04.662Z,9.80
2022-11-14T15:14:58.722Z,9.80
2022-11-14T15:17:54.487Z,9.70
2022-11-14T15:20:46.389Z,9.60
2022-11-14T15:23:39.839Z,9.60
2022-11-14T15:26:32.596Z,9.50
2022-11-14T15:29:25.745Z,9.50
2022-11-14T15:32:19.489Z,9.40
2022-11-14T15:35:13.887Z,9.40
2022-11-14T15:38:36.941Z,9.30
2022-11-14T15:41:43.889Z,9.30
2022-11-14T15:44:37.853Z,9.30
2022-11-14T15:47:31.663Z,9.20
2022-11-14T15:50:29.386Z,9.20
2022-11-14T15:53:24.514Z,9.20
2022-11-14T15:56:18.114Z,9.20
2022-11-14T15:59:13.122Z,9.30
2022-11-14T16:02:08.623Z,9.30
2022-11-14T16:05:03.205Z,9.30
2022-11-14T16:08:01.188Z,9.30
2022-11-14T16:10:58.336Z,9.30
2022-11-14T16:13:52.418Z,9.30
2022-11-14T16:16:43.997Z,9.30
2022-11-14T16:19:37.535Z,9.30
2022-11-14T16:22:30.520Z,9.20
2022-11-14T16:25:25.806Z,9.20
2022-11-14T16:28:22.561Z,9.20
2022-11-14T16:31:22.178Z,9.20
2022-11-14T16:34:17.991Z,9.20
2022-11-14T16:37:17.273Z,9.10
2022-11-14T16:40:11.892Z,9.10
2022-11-14T16:43:08.421Z,9.00
2022-11-14T16:46:02.024Z,9.00
2022-11-14T16:48:54.757Z,8.90
2022-11-14T16:51:50.193Z,8.90
2022-11-14T16:54:44.290Z,8.90
2022-11-14T16:57:37.317Z,8.90
2022-11-14T17:00:33.068Z,8.80
2022-11-14T17:03:27.078Z,9.40
2022-11-14T17:06:21.890Z,8.80
2022-11-14T17:09:14.790Z,8.70
2022-11-14T17:12:09.930Z,8.70
2022-11-14T17:15:03.220Z,8.80
2022-11-14T17:17:59.113Z,8.70
2022-11-14T17:20:53.781Z,8.70
2022-11-14T17:23:46.431Z,8.70
2022-11-14T17:26:40.657Z,8.70
2022-11-14T17:29:31.704Z,8.60
2022-11-14T17:32:24.748Z,8.60
2022-11-14T17:35:20.569Z,8.50
2022-11-14T17:38:14.147Z,8.40
2022-11-14T17:41:09.448Z,8.30
2022-11-14T17:44:04.581Z,9.10
2022-11-14T17:46:57.373Z,8.30
2022-11-14T17:49:51.457Z,8.20
2022-11-14T17:52:45.835Z,8.10
2022-11-14T17:55:42.532Z,8.10
2022-11-14T17:58:35.943Z,8.10
2022-11-14T18:01:31.900Z,8.00
2022-11-14T18:04:25.348Z,8.00
2022-11-14T18:07:20.984Z,8.00
2022-11-14T18:10:16.939Z,8.00
2022-11-14T18:13:15.394Z,8.00
2022-11-14T18:16:07.482Z,7.90
2022-11-14T18:19:03.302Z,7.90
2022-11-14T18:21:57.221Z,7.90
2022-11-14T18:24:50.956Z,7.80
2022-11-14T18:27:49.249Z,7.80
2022-11-14T18:30:43.880Z,7.80
2022-11-14T18:33:38.311Z,7.80
2022-11-14T18:36:31.304Z,7.70
2022-11-14T18:39:26.739Z,7.70
2022-11-14T18:42:19.411Z,7.70
2022-11-14T18:45:19.304Z,7.70
2022-11-14T18:48:11.818Z,7.70
2022-11-14T18:51:06.015Z,8.40
2022-11-14T18:53:59.486Z,7.60
2022-11-14T18:56:52.586Z,7.60
2022-11-14T18:59:46.222Z,7.60
2022-11-14T19:02:41.439Z,7.60
2022-11-14T19:05:33.315Z,7.50
2022-11-14T19:08:25.355Z,7.50
2022-11-14T19:11:30.261Z,7.40
2022-11-14T19:14:23.569Z,7.50
2022-11-14T19:17:22.888Z,7.40
2022-11-14T19:20:18.711Z,7.30
2022-11-14T19:23:12.502Z,7.20
2022-11-14T19:26:05.358Z,7.20
2022-11-14T19:28:58.607Z,7.10
2022-11-14T19:31:51.514Z,7.10
2022-11-14T19:34:42.928Z,7.00
2022-11-14T19:37:41.074Z,7.00
2022-11-14T19:40:34.796Z,7.00
2022-11-14T19:43:29.707Z,6.90
2022-11-14T19:46:31.491Z,6.90
2022-11-14T19:49:27.160Z,6.80
2022-11-14T19:52:25.827Z,6.70
2022-11-14T19:55:24.653Z,6.70
2022-11-14T19:58:20.156Z,6.70
2022-11-14T20:01:16.576Z,6.60
2022-11-14T20:04:12.031Z,6.60
2022-11-14T20:07:10.896Z,6.60
2022-11-14T20:10:09.951Z,6.60
2022-11-14T20:13:06.310Z,6.50
2022-11-14T20:16:10.432Z,6.50
2022-11-14T20:19:06.281Z,6.50
2022-11-14T20:22:02.898Z,6.50
2022-11-14T20:25:01.663Z,6.50
2022-11-14T20:27:58.822Z,6.40
2022-11-14T20:30:52.021Z,6.30
2022-11-14T20:33:50.081Z,6.30
2022-11-14T20:37:09.855Z,6.20
2022-11-14T20:39:57.790Z,6.20
2022-11-14T20:42:51.729Z,6.10
2022-11-14T20:45:46.278Z,6.10
2022-11-14T20:48:38.940Z,6.10
2022-11-14T20:51:37.014Z,6.90
2022-11-14T20:54:33.445Z,6.00
2022-11-14T20:57:30.786Z,5.90
2022-11-14T21:00:24.368Z,5.80
2022-11-14T21:03:19.794Z,5.80
2022-11-14T21:06:13.363Z,5.80
2022-11-14T21:09:06.954Z,5.70
2022-11-14T21:12:02.920Z,5.70
2022-11-14T21:14:56.103Z,5.70
2022-11-14T21:17:49.741Z,5.70
2022-11-14T21:20:44.046Z,5.60
2022-11-14T21:23:43.426Z,5.60
2022-11-14T21:26:47.995Z,5.50
2022-11-14T21:29:44.061Z,5.50
2022-11-14T21:32:37.324Z,5.50
2022-11-14T21:35:36.153Z,5.50
2022-11-14T21:38:29.803Z,5.50
2022-11-14T21:41:21.560Z,5.50
2022-11-14T21:44:13.840Z,5.50
2022-11-14T21:47:09.635Z,5.50
2022-11-14T21:50:05.379Z,5.50
2022-11-14T21:52:56.594Z,5.50
2022-11-14T21:55:49.360Z,5.50
2022-11-14T21:58:41.548Z,5.40
2022-11-14T22:01:53.086Z,5.40
2022-11-14T22:04:48.412Z,5.30
2022-11-14T22:07:43.154Z,5.30
2022-11-14T22:10:33.946Z,5.30
2022-11-14T22:13:26.461Z,5.20
2022-11-14T22:16:19.946Z,5.20
2022-11-14T22:19:12.574Z,5.20
2022-11-14T22:22:07.096Z,5.10
2022-11-14T22:24:59.938Z,5.10
2022-11-14T22:27:52.575Z,5.10
2022-11-14T22:30:45.362Z,5.10
2022-11-14T22:33:36.654Z,5.10
2022-11-14T22:36:29.516Z,5.00
2022-11-14T22:39:25.065Z,5.00
2022-11-14T22:42:17.766Z,5.00
2022-11-14T22:45:08.665Z,5.00
2022-11-14T22:48:01.444Z,4.90
2022-11-14T22:50:59.975Z,4.90
2022-11-14T22:53:52.637Z,4.90
2022-11-14T22:56:48.288Z,4.90
2022-11-14T22:59:40.632Z,4.80
2022-11-14T23:02:33.392Z,4.80
2022-11-14T23:05:25.473Z,4.80
2022-11-14T23:08:18.908Z,4.80
2022-11-14T23:11:12.749Z,4.80
2022-11-14T23:14:07.945Z,4.70
2022-11-14T23:17:00.599Z,4.70
2022-11-14T23:19:53.567Z,4.70
2022-11-14T23:22:46.407Z,4.70
2022-11-14T23:25:38.308Z,4.70
2022-11-14T23:28:29.414Z,4.70
2022-11-14T23:31:24.568Z,4.70
2022-11-14T23:34:15.483Z,4.70
2022-11-14T23:37:09.110Z,4.60
2022-11-14T23:40:04.379Z,4.60
2022-11-14T23:42:56.304Z,4.50
2022-11-14T23:45:48.619Z,4.50
2022-11-14T23:48:44.853Z,4.50
2022-11-14T23:51:37.450Z,4.40
2022-11-14T23:54:30.558Z,4.40
2022-11-14T23:57:22.587Z,4.40
